Flight Track Log - Related Links

Times and Time Zones

All times are in EDT time to prevent confusion due to time zone crossing. See the CSN6797 flight status page for this flight to view local times or setup timezone preferences in your user account.

Time Position Orientation Groundspeed Altitude Reporting Facility
EDT Latitude Longitude Course Direction KTS MPH feet Rate Location/Type
Thu 08:24:15 PM 24.2529 107.8345 349° North  Level Estimated
Thu 08:25:15 PM 24.3608 107.8121 349° North  Level Estimated
Thu 08:26:15 PM 24.4686 107.7896 349° North  Level Estimated
Thu 08:27:15 PM 24.5764 107.7671 349° North  Level Estimated
Thu 08:28:15 PM 24.6842 107.7445 349° North  Level Estimated
Thu 08:29:15 PM 24.7920 107.7219 349° North  Level Estimated
Thu 08:30:15 PM 24.8998 107.6992 349° North  Level Estimated
Thu 08:31:15 PM 25.0076 107.6765 349° North  Level Estimated
Thu 08:32:15 PM 25.1154 107.6538 349° North  Level Estimated
Thu 08:33:15 PM 25.2232 107.6310 349° North  Level Estimated
Thu 08:34:15 PM 25.3310 107.6082 349° North  Level Estimated
Thu 08:35:15 PM 25.4388 107.5854 349° North  Level Estimated
Thu 08:36:15 PM 25.5466 107.5625 349° North  Level Estimated
Thu 08:37:15 PM 25.6544 107.5395 349° North  Level Estimated
Thu 08:38:15 PM 25.7621 107.5165 349° North  Level Estimated
Thu 08:39:15 PM 25.8699 107.4935 349° North  Level Estimated
Thu 08:40:15 PM 25.9777 107.4705 349° North  Level Estimated
Thu 08:41:15 PM 26.0855 107.4474 349° North  Level Estimated
Thu 08:42:15 PM 26.1932 107.4242 349° North  Level Estimated
Thu 08:43:15 PM 26.3010 107.4010 349° North  Level Estimated
Thu 08:44:15 PM 26.4087 107.3778 349° North  Level Estimated
Thu 08:45:15 PM 26.5165 107.3545 349° North  Level Estimated
Thu 08:46:15 PM 26.6242 107.3312 349° North  Level Estimated
Thu 08:47:15 PM 26.7320 107.3079 349° North  Level Estimated
Thu 08:48:15 PM 26.8397 107.2844 349° North  Level Estimated
Thu 08:49:15 PM 26.9475 107.2610 349° North  Level Estimated
Thu 08:50:15 PM 27.0552 107.2375 349° North  Level Estimated
Thu 08:51:15 PM 27.1629 107.2140 349° North  Level Estimated
Thu 08:52:15 PM 27.2706 107.1904 349° North  Level Estimated
Thu 08:53:15 PM 27.3783 107.1667 349° North  Level Estimated
Thu 08:54:15 PM 27.4861 107.1431 349° North  Level Estimated
Thu 08:55:15 PM 27.5938 107.1193 349° North  Level Estimated
Thu 08:56:15 PM 27.7015 107.0956 349° North  Level Estimated
Thu 08:57:15 PM 27.8092 107.0717 349° North  Level Estimated
Thu 08:58:15 PM 27.9169 107.0479 349° North  Level Estimated
Thu 08:59:15 PM 28.0246 107.0239 349° North  Level Estimated
Thu 09:00:15 PM 28.1323 107.0000 349° North  Level Estimated
Thu 09:01:15 PM 28.2400 106.9760 349° North  Level Estimated
Thu 09:02:15 PM 28.3476 106.9519 349° North  Level Estimated
Thu 09:03:15 PM 28.4553 106.9278 349° North  Level Estimated
Thu 09:04:15 PM 28.5630 106.9037 349° North  Level Estimated
Thu 09:05:15 PM 28.6707 106.8795 349° North  Level Estimated
Thu 09:06:15 PM 28.7783 106.8552 349° North  Level Estimated
Thu 09:07:15 PM 28.8860 106.8309 349° North  Level Estimated
Thu 09:08:15 PM 28.9937 106.8066 349° North  Level Estimated
Thu 09:09:15 PM 29.1013 106.7822 349° North  Level Estimated
Thu 09:10:15 PM 29.2090 106.7577 349° North  Level Estimated
Thu 09:11:15 PM 29.3166 106.7332 349° North  Level Estimated
Thu 09:12:15 PM 29.4242 106.7086 349° North  Level Estimated
Thu 09:13:15 PM 29.5319 106.6840 349° North  Level Estimated
Thu 09:14:15 PM 29.6395 106.6593 349° North  Level Estimated
Thu 09:15:15 PM 29.7471 106.6346 169° South  Level Estimated
Thu 09:16:15 PM 29.6395 106.6594 349° North  Level Estimated
Thu 09:17:15 PM 29.7471 106.6346 169° South  Level Estimated
Thu 09:18:15 PM 29.6395 106.6594 349° North  Level Estimated
Thu 09:19:15 PM 29.7471 106.6346 169° South  Level Estimated
Thu 09:20:15 PM 29.6395 106.6594 349° North  Level Estimated
Thu 09:21:15 PM 29.7471 106.6346 169° South  Level Estimated
Thu 09:22:15 PM 29.6395 106.6594 349° North  Level Estimated
Thu 09:23:15 PM 29.7471 106.6346 169° South  Level Estimated
Thu 09:24:15 PM 29.6395 106.6594 349° North  Level Estimated
Thu 09:25:15 PM 29.7471 106.6346 169° South  Level Estimated
Thu 09:26:15 PM 29.6395 106.6594 349° North  Level Estimated
Thu 09:27:15 PM 29.7471 106.6346 349° North  Level Estimated

Login

Don't have an account? Register now (free) for customized features, flight alerts, and more!